Home > Products > Valid Products > TAF

000
FTUS41 KCLE 231100 AAA
TAFERI
TAF AMD
KERI 231146Z 2312/2412 26008KT P6SM SCT025 OVC200
      TEMPO 2312/2315 5SM -SHRA BR BKN025
     FM231500 33010KT P6SM OVC012
     FM231800 33012KT P6SM OVC025
     FM232000 33012KT P6SM BKN040
     FM240100 35006KT P6SM SCT050=



000
FTUS41 KCLE 231100
TAFFDY
TAF
KFDY 231138Z 2312/2412 24006KT 5SM -RA BR OVC100
     FM231330 31008KT P6SM OVC015
     FM231600 35010KT P6SM OVC025
     FM231900 01010KT P6SM BKN035
     FM232300 03008KT P6SM SCT050
     FM240400 03006KT P6SM SKC=



000
FTUS41 KCLE 231100
TAFCAK
TAF
KCAK 231138Z 2312/2412 24006KT P6SM SCT040 OVC100
      TEMPO 2312/2315 4SM -SHRA BR OVC040
     FM231500 28006KT P6SM SCT015 OVC040
      TEMPO 2315/2318 4SM -SHRA BR OVC015
     FM231800 34010KT P6SM OVC015
     FM232030 34010KT P6SM BKN025
     FM232300 34008KT P6SM BKN040
     FM240500 01006KT P6SM SKC=



000
FTUS41 KCLE 231100
TAFMFD
TAF
KMFD 231138Z 2312/2412 24006KT 5SM -SHRA BR SCT040 OVC100
     FM231400 27006KT P6SM SCT012 OVC040
      TEMPO 2314/2318 4SM -SHRA BR OVC012
     FM231800 34010KT P6SM OVC012
     FM232030 34010KT P6SM BKN020
     FM232300 34008KT P6SM BKN040
     FM240600 36006KT P6SM SCT050=



000
FTUS41 KCLE 231100
TAFCLE
TAF
KCLE 231138Z 2312/2418 25008KT 5SM -SHRA BR SCT040 OVC100
     FM231400 34008KT P6SM SCT009 OVC015
      TEMPO 2314/2316 5SM -SHRA BR OVC009
     FM231600 36010KT P6SM OVC015
     FM231800 36012KT P6SM BKN025
     FM232030 36012KT P6SM BKN040
     FM240600 01008KT P6SM SCT050=



000
FTUS41 KCLE 231100
TAFERI
TAF
KERI 231138Z 2312/2412 22008KT P6SM SCT060 OVC200
      TEMPO 2312/2315 5SM -SHRA BR BKN060
     FM231500 33010KT P6SM OVC012
     FM231800 33012KT P6SM OVC025
     FM232000 33012KT P6SM BKN040
     FM240100 35006KT P6SM SCT050=



000
FTUS41 KCLE 231100
TAFYNG
TAF
KYNG 231138Z 2312/2412 22006KT P6SM SCT040 OVC100
      TEMPO 2312/2315 4SM -SHRA BKN040
     FM231500 26006KT P6SM SCT015 OVC100
      TEMPO 2315/2317 5SM -SHRA BKN015
     FM231700 33010KT P6SM OVC015
     FM232000 33010KT P6SM BKN025
     FM232200 33008KT P6SM BKN040
     FM240500 35006KT P6SM SKC=



000
FTUS41 KCLE 231100
TAFTOL
TAF
KTOL 231138Z 2312/2412 32010KT P6SM OVC015
     FM231500 35010KT P6SM BKN020
     FM231800 01010KT P6SM BKN040
     FM232200 01008KT P6SM SCT050
     FM240300 01006KT P6SM SKC=



000
FTUS41 KCLE 231000 AAB
TAFCAK
TAF AMD
KCAK 231036Z 2311/2406 24006KT P6SM VCTS SCT035CB BKN060
      TEMPO 2311/2314 3SM -SHRA BR OVC035
     FM231400 27006KT P6SM BKN040 OVC080
      TEMPO 2314/2317 4SM -SHRA BR BKN012
     FM231700 34010KT P6SM OVC012
     FM232000 34010KT P6SM BKN025
     FM232200 34010KT P6SM BKN035
     FM240000 34010KT P6SM BKN045=



000
FTUS41 KCLE 231000 AAA
TAFERI
TAF AMD
KERI 231034Z 2311/2406 20006KT P6SM VCTS SCT040CB OVC200
      TEMPO 2311/2313 4SM -SHRA BR OVC040
     FM231300 26008KT P6SM BKN040 OVC080
      TEMPO 2313/2315 5SM -SHRA BR SCT012 OVC040
     FM231500 33010KT P6SM OVC012
     FM231800 33012KT P6SM OVC025
     FM232000 33012KT P6SM BKN035
     FM232300 35010KT P6SM BKN045=



000
FTUS41 KCLE 231000 AAA
TAFYNG
TAF AMD
KYNG 231029Z 2310/2406 24006KT P6SM VCTS SCT035CB BKN080
      TEMPO 2311/2314 4SM -SHRA OVC035
     FM231400 27006KT P6SM BKN035 OVC080
      TEMPO 2314/2317 5SM -SHRA BKN015
     FM231700 33010KT P6SM OVC015
     FM232000 33010KT P6SM BKN025
     FM232200 33008KT P6SM BKN035
     FM240000 33006KT P6SM BKN045=



000
FTUS41 KCLE 230800 AAA
TAFCAK
TAF AMD
KCAK 230817Z 2308/2406 24006KT P6SM BKN080 OVC250
      TEMPO 2310/2312 27012G20KT 4SM -TSRA OVC040CB
     FM231200 27006KT P6SM BKN040 OVC080
      TEMPO 2312/2316 5SM -SHRA BKN025
     FM231600 34010KT P6SM OVC012
     FM232000 34010KT P6SM BKN025
     FM232200 34010KT P6SM BKN035
     FM240000 34010KT P6SM BKN045=



000
FTUS41 KCLE 230800 AAA
TAFMFD
TAF AMD
KMFD 230816Z 2308/2406 22006KT P6SM BKN080 BKN250
      TEMPO 2309/2311 27015G25KT 3SM TSRA OVC040CB
     FM231100 27006KT P6SM BKN040 OVC080
      TEMPO 2313/2317 5SM -SHRA BKN015
     FM231700 34010KT P6SM OVC015
     FM232000 34010KT P6SM BKN025
     FM232200 34008KT P6SM BKN035
     FM240000 34006KT P6SM BKN045=



000
FTUS41 KCLE 230700 AAA
TAFCLE
TAF AMD
KCLE 230741Z 2308/2412 22006KT P6SM BKN080 OVC250
      TEMPO 2309/2312 27015G25KT 3SM TSRA OVC035CB
     FM231200 27010KT P6SM VCSH OVC035
     FM231400 34008KT P6SM OVC009
     FM231600 36010KT P6SM OVC015
     FM231800 36012KT P6SM BKN025
     FM232100 36012KT P6SM BKN035
     FM240000 36010KT P6SM BKN045=



000
FTUS41 KCLE 230600 AAA
TAFFDY
TAF AMD
KFDY 230604Z 2306/2406 23006KT P6SM BKN080 OVC250
      TEMPO 2307/2309 3SM -TSRA OVC040CB
     FM230900 27006KT P6SM VCSH OVC040
     FM231200 31008KT P6SM OVC015
     FM231500 35010KT P6SM BKN025
     FM231900 01010KT P6SM BKN035
     FM232300 03008KT P6SM SCT050=



000
FTUS41 KCLE 230500 RRA
TAFFDY
TAF
KFDY 230541Z 2306/2406 23006KT P6SM BKN080 OVC250
      TEMPO 2307/2309 5SM -SHRA OVC040
     FM230900 27006KT P6SM VCSH OVC040
     FM231200 31008KT P6SM OVC015
     FM231500 35010KT P6SM BKN025
     FM231900 01010KT P6SM BKN035
     FM232300 03008KT P6SM SCT050=



000
FTUS41 KCLE 230500 RRA
TAFYNG
TAF
KYNG 230541Z 2306/2406 21006KT P6SM SCT250
     FM230800 24006KT P6SM BKN080 BKN250
      TEMPO 2310/2314 27010KT 5SM -SHRA OVC040
     FM231400 27006KT P6SM BKN040 OVC080
      TEMPO 2314/2318 5SM -TSRA BKN015CB
     FM231800 33010KT P6SM OVC015
     FM232000 33010KT P6SM BKN025
     FM232200 33008KT P6SM BKN035
     FM240000 33006KT P6SM BKN045=



000
FTUS41 KCLE 230500 RRA
TAFERI
TAF
KERI 230541Z 2306/2406 20006KT P6SM BKN080 OVC250
      TEMPO 2308/2311 5SM -TSRA OVC035CB
     FM231100 26010KT P6SM VCSH OVC035
     FM231400 33008KT P6SM OVC012
     FM231600 33010KT P6SM OVC025
     FM231900 33012KT P6SM BKN035
     FM232300 35010KT P6SM BKN045=



000
FTUS41 KCLE 230500 RRA
TAFCLE
TAF
KCLE 230541Z 2306/2412 22006KT P6SM BKN080 OVC250
      TEMPO 2307/2310 5SM -TSRA OVC035CB
     FM231000 27006KT P6SM VCSH OVC035
     FM231400 34008KT P6SM OVC009
     FM231600 36010KT P6SM OVC015
     FM231800 36012KT P6SM BKN025
     FM232100 36012KT P6SM BKN035
     FM240000 36010KT P6SM BKN045=



000
FTUS41 KCLE 230500 RRA
TAFMFD
TAF
KMFD 230541Z 2306/2406 22006KT P6SM BKN080 BKN250
      TEMPO 2308/2311 27010KT 5SM -TSRA OVC040CB
     FM231100 27006KT P6SM BKN040 OVC080
      TEMPO 2313/2317 5SM -SHRA BKN015
     FM231700 34010KT P6SM OVC015
     FM232000 34010KT P6SM BKN025
     FM232200 34008KT P6SM BKN035
     FM240000 34006KT P6SM BKN045=



000
FTUS41 KCLE 230500 RRA
TAFCAK
TAF
KCAK 230541Z 2306/2406 22006KT P6SM BKN080 OVC250
      TEMPO 2308/2311 27010KT 5SM -TSRA OVC040CB
     FM231100 27006KT P6SM BKN040 OVC080
      TEMPO 2312/2316 5SM -SHRA BKN025
     FM231600 34010KT P6SM OVC012
     FM232000 34010KT P6SM BKN025
     FM232200 34010KT P6SM BKN035
     FM240000 34010KT P6SM BKN045=



000
FTUS41 KCLE 230500 RRA
TAFTOL
TAF
KTOL 230541Z 2306/2406 24006KT P6SM BKN080 OVC250
      TEMPO 2306/2309 5SM -SHRA OVC040
     FM230900 28008KT P6SM VCSH OVC040
     FM231100 32010KT P6SM OVC012
     FM231500 35010KT P6SM BKN020
     FM231800 01010KT P6SM BKN040
     FM232300 01008KT P6SM SCT050=



000
FTUS41 KCLE 230300 AAA
TAFCLE
TAF AMD
KCLE 230301Z 2303/2406 21008KT P6SM FEW050 BKN250
     FM231100 26008KT P6SM VCSH BKN050 OVC100
     FM231400 32008KT P6SM VCSH OVC020
      TEMPO 2314/2317 34012KT 5SM -SHRA OVC012
     FM231700 34012KT P6SM BKN018
     FM240100 01008KT P6SM SCT030=



000
FTUS41 KCLE 222300
TAFFDY
TAF
KFDY 222340Z 2300/2324 23007KT P6SM SCT050
     FM231000 26008KT P6SM VCSH BKN045 OVC100
     FM231400 30010KT P6SM BKN015
     FM232000 34010KT P6SM BKN025=



000
FTUS41 KCLE 222300
TAFCAK
TAF
KCAK 222340Z 2300/2324 23008KT P6SM SCT050
     FM231300 25008KT P6SM VCSH BKN050 OVC100
      TEMPO 2315/2319 30007KT 4SM -SHRA BKN014
     FM231900 32008KT P6SM BKN020 OVC030=



000
FTUS41 KCLE 222300
TAFYNG
TAF
KYNG 222340Z 2300/2324 24008KT P6SM SCT050
     FM231300 25008KT P6SM VCSH BKN050 OVC100
      TEMPO 2315/2319 30007KT 4SM -SHRA BKN014
     FM231900 32008KT P6SM BKN020 OVC030=



000
FTUS41 KCLE 222300
TAFMFD
TAF
KMFD 222340Z 2300/2324 22008KT P6SM SCT050
     FM231200 25008KT P6SM VCSH BKN045 OVC100
      TEMPO 2314/2318 30007KT 5SM -SHRA BKN014
     FM231800 32008KT P6SM BKN016 OVC030=



000
FTUS41 KCLE 222300
TAFCLE
TAF
KCLE 222340Z 2300/2406 24008KT P6SM FEW050
     FM231100 26008KT P6SM VCSH BKN050 OVC100
     FM231300 32008KT P6SM VCSH OVC020
      TEMPO 2313/2317 34012KT -SHRA OVC012
     FM231700 34012KT P6SM BKN018
     FM240100 01008KT P6SM SCT030=



000
FTUS41 KCLE 222300
TAFTOL
TAF
KTOL 222340Z 2300/2324 22006KT P6SM SCT200
     FM230800 25008KT P6SM VCSH BKN040 OVC100
     FM231200 32010KT P6SM OVC018
     FM231800 36010KT P6SM BKN035=



000
FTUS41 KCLE 222300
TAFERI
TAF
KERI 222340Z 2300/2324 VRB04KT P6SM FEW050
     FM230200 18008KT P6SM SKC
     FM231200 23010KT P6SM VCSH BKN050 OVC100
      TEMPO 2314/2317 34012KT -SHRA OVC012
     FM231700 34012KT P6SM BKN018
     FM232100 30010KT P6SM BKN030=



000
FTUS41 KCLE 222000 AAA
TAFCLE
TAF AMD
KCLE 222058Z 2221/2324 22009KT P6SM SCT050
     FM231000 24008KT P6SM VCSH BKN050 OVC100
     FM231300 30008KT P6SM VCSH OVC025
     FM231900 35014KT P6SM BKN035=



000
FTUS41 KCLE 221700
TAFERI
TAF
KERI 221730Z 2218/2318 30006KT P6SM FEW050
     FM230000 19008KT P6SM SCT250
     FM231100 23010KT P6SM VCSH BKN050 OVC100
     FM231300 28009KT P6SM VCSH OVC025
     FM231700 30010KT P6SM BKN035=



000
FTUS41 KCLE 221700
TAFCLE
TAF
KCLE 221730Z 2218/2324 25008KT P6SM SCT050
     FM230000 20006KT P6SM SCT250
     FM231000 24008KT P6SM VCSH BKN050 OVC100
     FM231300 30008KT P6SM VCSH OVC025
     FM231900 35014KT P6SM BKN035=



000
FTUS41 KCLE 221700
TAFCAK
TAF
KCAK 221730Z 2218/2318 22008KT P6SM BKN050
     FM222300 20006KT P6SM SCT250
     FM231200 25008KT P6SM VCSH BKN050 OVC100
     FM231400 30008KT P6SM VCSH BKN025 OVC050=



000
FTUS41 KCLE 221700
TAFYNG
TAF
KYNG 221730Z 2218/2318 22008KT P6SM BKN050
     FM222300 20006KT P6SM SCT250
     FM231200 25008KT P6SM VCSH BKN050 OVC100
     FM231400 29008KT P6SM VCSH BKN025 OVC050=



000
FTUS41 KCLE 221700
TAFMFD
TAF
KMFD 221730Z 2218/2318 22008KT P6SM SCT045
     FM222300 21006KT P6SM SCT200
     FM231000 25008KT P6SM VCSH BKN050 OVC100
     FM231400 29008KT P6SM VCSH BKN025 OVC050=



000
FTUS41 KCLE 221700
TAFFDY
TAF
KFDY 221730Z 2218/2318 22010KT P6SM SCT050
     FM222300 22006KT P6SM BKN200
     FM230900 26008KT P6SM VCSH BKN050 OVC100
     FM231300 31010KT P6SM OVC025=



000
FTUS41 KCLE 221700
TAFTOL
TAF
KTOL 221730Z 2218/2318 23010KT P6SM SCT050
     FM222300 22006KT P6SM BKN200
     FM230700 25008KT P6SM VCSH BKN050 OVC100
     FM231100 31010KT P6SM OVC025=



000
FTUS41 KCLE 221400 AAA
TAFCLE
TAF AMD
KCLE 221421Z 2214/2318 23007KT P6SM SCT040
     FM221900 02006KT P6SM SCT050
     FM230000 21006KT P6SM BKN250
     FM231000 23008KT P6SM VCSH BKN050 OVC100
     FM231300 30008KT P6SM VCSH OVC035=



000
FTUS41 KCLE 221200 AAA
TAFTOL
TAF AMD
KTOL 221219Z 2212/2312 19004KT P6SM SKC
     FM221600 22008KT P6SM SCT050
     FM222300 22006KT P6SM BKN250
     FM230800 27008KT P6SM VCSH BKN050 OVC100=



000
FTUS41 KCLE 221100
TAFYNG
TAF
KYNG 221137Z 2212/2312 14004KT 4SM BR SKC
     FM221400 18006KT P6SM SCT040
     FM221800 20008KT P6SM BKN050
     FM222300 20006KT P6SM SCT250
     FM231100 22008KT P6SM BKN100=



000
FTUS41 KCLE 221100
TAFERI
TAF
KERI 221137Z 2212/2312 17003KT P6SM SKC
     FM221500 23006KT P6SM SCT040
     FM221800 32006KT P6SM SKC
     FM230000 19008KT P6SM SCT250
     FM231000 22010KT P6SM BKN100 OVC250=



000
FTUS41 KCLE 221100
TAFMFD
TAF
KMFD 221137Z 2212/2312 17004KT P6SM SKC
     FM221500 21008KT P6SM SCT050
     FM222300 21006KT P6SM SCT250
     FM230900 23008KT P6SM BKN100 OVC250=



000
FTUS41 KCLE 221100
TAFCLE
TAF
KCLE 221137Z 2212/2318 17004KT P6SM SKC
     FM221500 21008KT P6SM SCT045
     FM221900 02006KT P6SM SCT050
     FM230000 21006KT P6SM BKN250
     FM231000 23008KT P6SM VCSH BKN050 OVC100
     FM231300 30008KT P6SM VCSH OVC050=



000
FTUS41 KCLE 221100
TAFTOL
TAF
KTOL 221137Z 2212/2312 VRB03KT 5SM BR SKC
     FM221330 19005KT P6SM SKC
     FM221600 22008KT P6SM SCT050
     FM222300 22006KT P6SM BKN250
     FM230800 27008KT P6SM VCSH BKN050 OVC100=



000
FTUS41 KCLE 221100
TAFCAK
TAF
KCAK 221137Z 2212/2312 VRB03KT 5SM HZ SKC
     FM221400 22006KT P6SM SCT040
     FM221800 22008KT P6SM BKN050
     FM222300 20006KT P6SM SCT250
     FM231000 22008KT P6SM BKN100=



000
FTUS41 KCLE 221100
TAFFDY
TAF
KFDY 221137Z 2212/2312 VRB03KT 5SM BR SKC
     FM221330 18005KT P6SM SKC
     FM221600 22010KT P6SM SCT050
     FM222300 22006KT P6SM BKN250
     FM231000 26008KT P6SM VCSH BKN050 OVC100=



000
FTUS41 KCLE 220900 AAA
TAFCLE
TAF AMD
KCLE 220916Z 2209/2312 16004KT P6SM SKC
     FM221500 21008KT P6SM SCT045
     FM221900 02006KT P6SM SCT050
     FM230000 21006KT P6SM BKN250
     FM231000 23008KT P6SM VCSH BKN050 OVC100=



000
FTUS41 KCLE 220500
TAFCLE
TAF
KCLE 220539Z 2206/2312 15004KT P6SM SKC
      TEMPO 2210/2213 5SM BR
     FM221500 21008KT P6SM SCT045
     FM221900 02006KT P6SM SCT050
     FM230000 21006KT P6SM BKN250
     FM231000 23008KT P6SM VCSH BKN050 OVC100=



000
FTUS41 KCLE 220500
TAFTOL
TAF
KTOL 220539Z 2206/2306 VRB03KT P6SM SKC
      TEMPO 2210/2213 5SM BR
     FM221500 22008KT P6SM SCT050
     FM222300 22006KT P6SM BKN250=



000
FTUS41 KCLE 220500
TAFERI
TAF
KERI 220539Z 2206/2306 17003KT P6SM SKC
     FM221500 23007KT P6SM SCT040
     FM221800 30007KT P6SM SKC
     FM230000 20007KT P6SM SKC=



000
FTUS41 KCLE 220500
TAFCAK
TAF
KCAK 220539Z 2206/2306 VRB03KT P6SM SKC
     FM221000 VRB03KT 5SM BR SKC
     FM221400 22006KT P6SM SCT040
     FM221800 22008KT P6SM BKN050
     FM222300 20006KT P6SM SCT250=



000
FTUS41 KCLE 220500
TAFFDY
TAF
KFDY 220539Z 2206/2306 VRB03KT P6SM SKC
      TEMPO 2210/2213 5SM BR
     FM221500 22010KT P6SM SCT050
     FM222300 22006KT P6SM BKN250=



000
FTUS41 KCLE 220500
TAFYNG
TAF
KYNG 220539Z 2206/2306 VRB03KT P6SM SKC
     FM221000 VRB03KT 4SM BR SKC
     FM221400 22006KT P6SM SCT040
     FM221800 22008KT P6SM BKN050
     FM222300 20006KT P6SM SCT250=



000
FTUS41 KCLE 220500
TAFMFD
TAF
KMFD 220539Z 2206/2306 15004KT P6SM SKC
      TEMPO 2210/2213 5SM BR
     FM221500 21008KT P6SM SCT050
     FM222300 21006KT P6SM SCT250=



000
FTUS41 KCLE 220200 AAA
TAFCLE
TAF AMD
KCLE 220255Z 2203/2306 14004KT P6SM SKC
     FM221400 22006KT P6SM SCT040
     FM221800 34005KT P6SM SCT045
     FM230100 20008KT P6SM SCT250=



000
FTUS41 KCLE 212300
TAFTOL
TAF
KTOL 212334Z 2200/2224 10003KT P6SM FEW050
     FM221000 00000KT 5SM BR SKC
     FM221300 20006KT P6SM SCT040=



000
FTUS41 KCLE 212300
TAFCLE
TAF
KCLE 212334Z 2200/2306 03006KT P6SM SKC
     FM220300 15004KT P6SM SKC
     FM221400 22006KT P6SM SCT040
     FM221800 34005KT P6SM SCT045
     FM230100 20008KT P6SM SCT250=



000
FTUS41 KCLE 212300
TAFMFD
TAF
KMFD 212334Z 2200/2224 VRB03KT P6SM SCT060
     FM221000 00000KT 4SM BR SKC
     FM221300 21007KT P6SM SCT040=



000
FTUS41 KCLE 212300
TAFFDY
TAF
KFDY 212334Z 2200/2224 VRB03KT P6SM FEW050
     FM221000 00000KT 5SM BR SKC
     FM221300 21007KT P6SM SCT040=



000
FTUS41 KCLE 212300
TAFERI
TAF
KERI 212334Z 2200/2224 VRB03KT P6SM FEW040
     FM220100 16004KT P6SM SKC
     FM221500 24006KT P6SM SCT040
     FM221900 29006KT P6SM FEW050=



000
FTUS41 KCLE 212300
TAFYNG
TAF
KYNG 212334Z 2200/2224 VRB03KT P6SM FEW050
     FM220900 00000KT 4SM BR SKC
     FM221300 22006KT P6SM SCT040=



000
FTUS41 KCLE 212300
TAFCAK
TAF
KCAK 212334Z 2200/2224 VRB03KT P6SM FEW050
     FM220900 00000KT 4SM BR SKC
     FM221300 22007KT P6SM SCT040=



000
FTUS41 KCLE 212000 AAA
TAFCLE
TAF AMD
KCLE 212059Z 2121/2224 02008KT P6SM SKC
     FM220100 VRB03KT P6SM SKC
     FM221400 22006KT P6SM SCT040
     FM221800 34005KT P6SM SCT045=



000
FTUS41 KCLE 211900 AAA
TAFYNG
TAF AMD
KYNG 211958Z 2120/2218 VRB03KT P6SM SCT050
     FM220000 00000KT P6SM SKC
     FM220900 00000KT 4SM BR SKC
     FM221300 22006KT P6SM SCT040=



000
FTUS41 KCLE 211900 AAA
TAFFDY
TAF AMD
KFDY 211903Z 2119/2218 VRB04KT P6SM SCT050
     FM220000 VRB03KT P6SM SKC
     FM221000 00000KT 5SM BR SKC
     FM221300 22006KT P6SM SCT040=



000
FTUS41 KCLE 211700
TAFTOL
TAF
KTOL 211736Z 2118/2218 00000KT P6SM SCT045
     FM212300 00000KT P6SM SKC
     FM221000 00000KT 5SM BR SKC
     FM221300 22006KT P6SM SCT040=



000
FTUS41 KCLE 211700
TAFYNG
TAF
KYNG 211736Z 2118/2218 VRB03KT P6SM BKN035
     FM220000 00000KT P6SM SKC
     FM220900 00000KT 4SM BR SKC
     FM221300 22006KT P6SM SCT040=



000
FTUS41 KCLE 211700
TAFCAK
TAF
KCAK 211736Z 2118/2218 00000KT P6SM BKN040
     FM220000 VRB03KT P6SM SKC
     FM220900 00000KT 4SM BR SKC
     FM221300 22006KT P6SM SCT040=



000
FTUS41 KCLE 211700
TAFFDY
TAF
KFDY 211736Z 2118/2218 VRB03KT P6SM BKN045
     FM220000 VRB03KT P6SM SKC
     FM221000 00000KT 5SM BR SKC
     FM221300 22006KT P6SM SCT040=



000
FTUS41 KCLE 211700
TAFMFD
TAF
KMFD 211736Z 2118/2218 VRB03KT P6SM BKN050
     FM220000 00000KT P6SM SKC
     FM221000 00000KT 4SM BR SKC
     FM221300 22006KT P6SM SCT040=



000
FTUS41 KCLE 211700
TAFERI
TAF
KERI 211736Z 2118/2218 32006KT P6SM FEW040
     FM220100 VRB03KT P6SM SKC
     FM221600 29006KT P6SM SCT040=



000
FTUS41 KCLE 211700
TAFCLE
TAF
KCLE 211736Z 2118/2224 01008KT P6SM FEW045
     FM220100 VRB03KT P6SM SKC
     FM221400 22006KT P6SM SCT040
     FM221800 34005KT P6SM SCT045=



000
FTUS41 KCLE 211500 AAB
TAFYNG
TAF AMD
KYNG 211555Z 2116/2212 00000KT P6SM BKN030
     FM211730 05004KT P6SM BKN035
     FM212300 VRB03KT P6SM SKC
      TEMPO 2210/2212 4SM BR=



000
FTUS41 KCLE 211500 AAA
TAFCLE
TAF AMD
KCLE 211513Z 2115/2218 00000KT P6SM SCT040
     FM211600 36005KT P6SM SCT040
     FM212300 VRB03KT P6SM SKC
     FM221600 20006KT P6SM SCT040=



000
FTUS41 KCLE 211300 AAA
TAFFDY
TAF AMD
KFDY 211310Z 2113/2212 00000KT P6SM SCT250
     FM211600 VRB03KT P6SM SCT045
     FM212200 VRB03KT P6SM SKC
      TEMPO 2210/2212 4SM BR=



000
FTUS41 KCLE 211300 AAA
TAFYNG
TAF AMD
KYNG 211310Z 2113/2212 00000KT P6SM SCT070
     FM211600 VRB03KT P6SM BKN045
     FM212200 VRB03KT P6SM SKC
      TEMPO 2210/2212 4SM BR=



000
FTUS41 KCLE 211300 AAA
TAFTOL
TAF AMD
KTOL 211309Z 2113/2212 VRB03KT P6SM SCT250
     FM211600 15005KT P6SM SCT045
     FM212200 VRB03KT P6SM SKC
      TEMPO 2210/2212 4SM BR=



000
FTUS41 KCLE 211200 AAA
TAFCAK
TAF AMD
KCAK 211233Z 2113/2212 00000KT P6SM SCT070
     FM211600 VRB03KT P6SM BKN045
     FM212200 VRB03KT P6SM SKC
      TEMPO 2210/2212 4SM BR=



000
FTUS41 KCLE 211100
TAFCAK
TAF
KCAK 211138Z 2112/2212 00000KT 4SM BR SCT070
     FM211430 VRB03KT P6SM SCT250
     FM211600 VRB03KT P6SM BKN045
     FM212200 VRB03KT P6SM SKC
      TEMPO 2210/2212 4SM BR=



000
FTUS41 KCLE 211100
TAFCLE
TAF
KCLE 211138Z 2112/2218 00000KT 5SM BR SCT250
     FM211300 VRB03KT P6SM SCT070
     FM211530 36006KT P6SM BKN040
     FM212000 02006KT P6SM SCT050
     FM212300 VRB03KT P6SM SKC
     FM221600 20006KT P6SM SCT040=



000
FTUS41 KCLE 211100
TAFYNG
TAF
KYNG 211138Z 2112/2212 00000KT 4SM BR SCT070
     FM211400 VRB03KT P6SM SCT070
     FM211600 VRB03KT P6SM BKN045
     FM212200 VRB03KT P6SM SKC
      TEMPO 2210/2212 4SM BR=



000
FTUS41 KCLE 211100
TAFERI
TAF
KERI 211138Z 2112/2212 VRB03KT P6SM SCT250
     FM211400 35005KT P6SM BKN040
     FM211900 35005KT P6SM SCT050
     FM212300 VRB03KT P6SM SKC=



000
FTUS41 KCLE 211100
TAFFDY
TAF
KFDY 211138Z 2112/2212 00000KT 4SM BR SCT250
     FM211400 VRB03KT P6SM SCT250
     FM211600 VRB03KT P6SM SCT045
     FM212200 VRB03KT P6SM SKC
      TEMPO 2210/2212 4SM BR=



000
FTUS41 KCLE 211100
TAFMFD
TAF
KMFD 211138Z 2112/2212 00000KT 4SM BR SCT060
     FM211400 VRB03KT P6SM SCT250
     FM211600 06003KT P6SM BKN045
     FM212200 VRB03KT P6SM SKC
      TEMPO 2210/2212 4SM BR=



000
FTUS41 KCLE 211100
TAFTOL
TAF
KTOL 211138Z 2112/2212 00000KT 4SM BR SCT250
     FM211400 VRB03KT P6SM SCT250
     FM211600 15005KT P6SM SCT045
     FM212200 VRB03KT P6SM SKC
      TEMPO 2210/2212 4SM BR=



000
FTUS41 KCLE 210900 AAA
TAFCLE
TAF AMD
KCLE 210920Z 2109/2212 00000KT 6SM BR SCT250
     FM211000 00000KT 5SM BR SCT250
     FM211330 VRB03KT P6SM SCT250
     FM211530 36006KT P6SM BKN040
     FM212000 02006KT P6SM SCT050
     FM212300 VRB03KT P6SM SKC=



000
FTUS41 KCLE 210800 AAA
TAFYNG
TAF AMD
KYNG 210823Z 2108/2206 VRB03KT 4SM BR SCT250
     FM211030 00000KT 1SM BR SCT250
     FM211400 00000KT 4SM BR SCT250
     FM211500 VRB03KT P6SM SCT250
     FM211600 VRB03KT P6SM BKN045
     FM212200 VRB03KT P6SM SKC=



000
FTUS41 KCLE 210500
TAFMFD
TAF
KMFD 210538Z 2106/2206 VRB03KT P6SM BKN250
     FM210800 00000KT 4SM BR SCT250
     FM211000 00000KT 3/4SM BR SCT250
     FM211300 00000KT 4SM BR SCT250
     FM211400 VRB03KT P6SM SCT250
     FM211600 06003KT P6SM BKN045
     FM212200 VRB03KT P6SM SKC=



000
FTUS41 KCLE 210500
TAFTOL
TAF
KTOL 210538Z 2106/2206 VRB03KT P6SM BKN250
     FM210800 00000KT 4SM BR SCT250
     FM211030 00000KT 2SM BR SCT250
     FM211300 00000KT 4SM BR SCT250
     FM211400 VRB03KT P6SM SCT250
     FM211600 15005KT P6SM SCT045
     FM212200 VRB03KT P6SM SKC=



000
FTUS41 KCLE 210500
TAFCAK
TAF
KCAK 210538Z 2106/2206 VRB03KT P6SM SCT250
     FM210700 00000KT 4SM BR SCT250
     FM211000 00000KT 3/4SM BR SCT250
     FM211330 00000KT 4SM BR SCT250
     FM211430 VRB03KT P6SM SCT250
     FM211600 VRB03KT P6SM BKN045
     FM212200 VRB03KT P6SM SKC=



000
FTUS41 KCLE 210500
TAFFDY
TAF
KFDY 210538Z 2106/2206 VRB03KT P6SM BKN250
     FM210800 00000KT 4SM BR SCT250
     FM211030 00000KT 1 1/2SM BR SCT250
     FM211300 00000KT 4SM BR SCT250
     FM211400 VRB03KT P6SM SCT250
     FM211600 VRB03KT P6SM SCT045
     FM212200 VRB03KT P6SM SKC=



000
FTUS41 KCLE 210500
TAFYNG
TAF
KYNG 210538Z 2106/2206 VRB03KT 4SM BR SCT250
     FM210900 00000KT 3/4SM BR SCT250
     FM211400 00000KT 4SM BR SCT250
     FM211500 VRB03KT P6SM SCT250
     FM211600 VRB03KT P6SM BKN045
     FM212200 VRB03KT P6SM SKC=



000
FTUS41 KCLE 210500
TAFERI
TAF
KERI 210538Z 2106/2206 VRB03KT P6SM SCT250
      TEMPO 2106/2110 4SM BR
     FM211000 VRB03KT 4SM BR SCT250
     FM211400 35005KT P6SM BKN040
     FM211900 35005KT P6SM SCT050
     FM212300 VRB03KT P6SM SKC=



000
FTUS41 KCLE 210500
TAFCLE
TAF
KCLE 210538Z 2106/2212 VRB03KT P6SM BKN250
     FM211000 00000KT 5SM BR SCT250
     FM211330 VRB03KT P6SM SCT250
     FM211530 36006KT P6SM BKN040
     FM212000 02006KT P6SM SCT050
     FM212300 VRB03KT P6SM SKC=



000
FTUS41 KCLE 210300 AAA
TAFCLE
TAF AMD
KCLE 210350Z 2104/2206 VRB03KT P6SM SCT250
     FM211000 00000KT 5SM BR SCT250
     FM211300 00000KT P6SM SCT250
     FM211600 36006KT P6SM SCT035=



000
FTUS41 KCLE 202300
TAFTOL
TAF
KTOL 202330Z 2100/2124 VRB03KT P6SM SCT250
     FM210800 00000KT 4SM BR SCT250
      TEMPO 2110/2112 2SM BR
     FM211400 VRB03KT P6SM SCT250
     FM211600 20004KT P6SM SCT035=



000
FTUS41 KCLE 202300
TAFCAK
TAF
KCAK 202330Z 2100/2124 VRB04KT P6SM SCT060
     FM210200 00000KT P6SM SCT250
     FM210700 00000KT 4SM BR SCT250
     FM210900 00000KT 3/4SM BR SCT250
     FM211400 VRB03KT P6SM SCT250
     FM211600 VRB03KT P6SM SCT035=



000
FTUS41 KCLE 202300
TAFMFD
TAF
KMFD 202330Z 2100/2124 VRB04KT P6SM SCT045
     FM210200 00000KT P6SM SCT250
     FM210800 00000KT 4SM BR SCT250
     FM211000 00000KT 3/4SM BR SCT250
     FM211400 00000KT P6SM SCT250
     FM211600 VRB03KT P6SM SCT035=



000
FTUS41 KCLE 202300
TAFERI
TAF
KERI 202330Z 2100/2124 36006KT P6SM SCT060
     FM210200 VRB03KT P6SM SCT250
     FM211700 01006KT P6SM FEW035=



000
FTUS41 KCLE 202300
TAFCLE
TAF
KCLE 202330Z 2100/2206 VRB04KT P6SM SCT250
     FM211000 00000KT 5SM BR SCT250
     FM211300 00000KT P6SM SCT250
     FM211600 36006KT P6SM SCT035=



000
FTUS41 KCLE 202300
TAFFDY
TAF
KFDY 202330Z 2100/2124 VRB03KT P6SM SCT250
     FM210800 00000KT 4SM BR SCT250
     FM211000 00000KT 1SM BR SCT250
     FM211400 VRB03KT P6SM SCT250
     FM211600 16004KT P6SM SCT035=



000
FTUS41 KCLE 202300
TAFYNG
TAF
KYNG 202330Z 2100/2124 16004KT P6SM SCT060
     FM210200 00000KT P6SM SCT250
     FM210700 00000KT 4SM BR SCT250
     FM210900 00000KT 1SM BR SCT250
     FM211400 00000KT P6SM SCT250
     FM211600 VRB03KT P6SM SCT035=



000
FTUS41 KCLE 202100 AAA
TAFCLE
TAF AMD
KCLE 202103Z 2021/2124 36005KT P6SM SCT060
     FM210100 00000KT P6SM SCT250
     FM211000 00000KT 5SM BR SCT250
     FM211300 00000KT P6SM SCT035
     FM211600 36006KT P6SM SCT035=



000
FTUS41 KCLE 201900 AAA
TAFCAK
TAF AMD
KCAK 201947Z 2020/2118 VRB04KT P6SM BKN035
     FM210100 00000KT P6SM SCT250
     FM210700 00000KT 4SM BR SCT250
     FM210900 00000KT 1SM BR SCT250
     FM211400 00000KT P6SM SCT030=



000
FTUS41 KCLE 201900 AAA
TAFYNG
TAF AMD
KYNG 201929Z 2019/2118 15004KT P6SM BKN035
     FM210100 00000KT P6SM SCT250
     FM210700 00000KT 4SM BR SCT250
     FM210900 00000KT 1SM BR SCT250
     FM211400 00000KT P6SM SCT030=



000
FTUS41 KCLE 201900 AAA
TAFFDY
TAF AMD
KFDY 201916Z 2019/2118 VRB03KT P6SM BKN040
     FM210100 00000KT P6SM SCT250
     FM210800 00000KT 4SM BR SCT250
     FM211000 00000KT 1SM BR SCT250
     FM211400 00000KT P6SM SCT035=



000
FTUS41 KCLE 201800 AAA
TAFERI
TAF AMD
KERI 201833Z 2019/2118 33006KT P6SM BKN035
     FM202100 33006KT P6SM SCT035
     FM210000 VRB03KT P6SM SCT250=



000
FTUS41 KCLE 201700
TAFCLE
TAF
KCLE 201740Z 2018/2124 34005KT P6SM BKN035
     FM202000 36005KT P6SM SCT035
     FM210100 00000KT P6SM SCT250
     FM211000 00000KT 5SM BR SCT250
     FM211300 00000KT P6SM SCT035
     FM211600 36006KT P6SM SCT035=



000
FTUS41 KCLE 201700
TAFTOL
TAF
KTOL 201740Z 2018/2118 VRB03KT P6SM SCT035
     FM210100 00000KT P6SM SCT250
     FM210800 00000KT 4SM BR SCT250
      TEMPO 2110/2112 2SM BR
     FM211400 00000KT P6SM SCT035=



000
FTUS41 KCLE 201700
TAFERI
TAF
KERI 201740Z 2018/2118 21008KT P6SM BKN035
     FM202000 33006KT P6SM BKN035
     FM210000 VRB03KT P6SM SCT250=



000
FTUS41 KCLE 201700
TAFCAK
TAF
KCAK 201740Z 2018/2118 00000KT P6SM BKN025
     FM201930 VRB03KT P6SM BKN035
     FM210200 00000KT P6SM SCT250
     FM210700 00000KT 4SM BR SCT250
     FM210900 00000KT 1SM BR SCT250
     FM211400 00000KT P6SM SCT030=



000
FTUS41 KCLE 201700
TAFMFD
TAF
KMFD 201740Z 2018/2118 09004KT P6SM BKN035
     FM210100 00000KT P6SM SCT250
     FM210800 00000KT 4SM BR SCT250
     FM211000 00000KT 2SM BR SCT250
     FM211400 00000KT P6SM SCT035=



000
FTUS41 KCLE 201700
TAFYNG
TAF
KYNG 201740Z 2018/2118 20005KT P6SM BKN025
     FM201930 18003KT P6SM BKN035
     FM202100 18003KT P6SM VCTS BKN035CB
     FM210200 00000KT P6SM SCT250
     FM210700 00000KT 4SM BR SCT250
     FM210900 00000KT 1SM BR SCT250
     FM211400 00000KT P6SM SCT030=



000
FTUS41 KCLE 201700
TAFFDY
TAF
KFDY 201740Z 2018/2118 08005KT P6SM BKN030
     FM202000 10004KT P6SM BKN035
     FM210100 00000KT P6SM SCT250
     FM210800 00000KT 4SM BR SCT250
     FM211000 00000KT 1SM BR SCT250
     FM211400 00000KT P6SM SCT035=



000
FTUS41 KCLE 201600 AAB
TAFFDY
TAF AMD
KFDY 201611Z 2016/2112 07005KT P6SM BKN018
     FM201800 11003KT P6SM BKN025
     FM202000 11004KT P6SM BKN035
     FM202300 11004KT P6SM SCT250
     FM210600 VRB03KT 4SM BR SKC=



000
FTUS41 KCLE 201600 AAC
TAFERI
TAF AMD
KERI 201609Z 2016/2112 18008KT P6SM BKN025
     FM201730 32008KT P6SM BKN035
     FM210000 VRB03KT P6SM SKC=



000
FTUS41 KCLE 201600 AAB
TAFCAK
TAF AMD
KCAK 201608Z 2016/2112 00000KT P6SM BKN015
     FM201800 VRB04KT P6SM BKN025
     FM202300 20004KT P6SM SCT050
     FM210900 04004KT 4SM BR SCT250=



000
FTUS41 KCLE 201600 AAA
TAFCLE
TAF AMD
KCLE 201606Z 2016/2118 27005KT P6SM BKN035
     FM201900 36006KT P6SM BKN050
     FM210000 14003KT P6SM SCT050
     FM210700 00000KT 4SM BR SKC=



000
FTUS41 KCLE 201600 AAB
TAFMFD
TAF AMD
KMFD 201605Z 2016/2112 VRB04KT P6SM BKN035
     FM202300 18004KT P6SM SCT050
     FM210900 00000KT 4SM BR SKC=



000
FTUS41 KCLE 201500 AAB
TAFYNG
TAF AMD
KYNG 201518Z 2015/2112 16005KT P6SM OVC015
     FM201700 16005KT P6SM BKN025
     FM202100 20006KT P6SM SCT050
     FM210900 13002KT 4SM BR SKC=



000
FTUS41 KCLE 201400 AAA
TAFCLE
TAF AMD
KCLE 201459Z 2015/2118 24005KT P6SM BKN020
     FM201700 24005KT P6SM BKN035
     FM201900 36006KT P6SM BKN050
     FM210000 14003KT P6SM SCT050
     FM210700 00000KT 4SM BR SKC=



000
FTUS41 KCLE 201400 AAB
TAFERI
TAF AMD
KERI 201415Z 2014/2112 19008KT P6SM BKN035
     FM201700 32007KT P6SM SCT045
     FM210000 VRB03KT P6SM SKC=



000
FTUS41 KCLE 201400 AAA
TAFFDY
TAF AMD
KFDY 201402Z 2014/2112 00000KT 3SM BR BKN004
     FM201500 13003KT P6SM BKN008
     FM201600 13003KT P6SM BKN025
     FM201800 13004KT P6SM BKN035
     FM202100 17004KT P6SM SCT250
     FM210600 VRB03KT 4SM BR SKC=



000
FTUS41 KCLE 201300 AAA
TAFYNG
TAF AMD
KYNG 201314Z 2013/2112 16005KT P6SM SCT006 BKN015 OVC050
     FM201430 16005KT P6SM BKN025
     FM202100 20006KT P6SM SCT050
     FM210900 13002KT 4SM BR SKC=



000
FTUS41 KCLE 201300 AAA
TAFCAK
TAF AMD
KCAK 201309Z 2013/2112 16003KT 3SM BR OVC007
     FM201400 VRB03KT 5SM BR BKN012
     FM201600 VRB04KT P6SM BKN025
     FM202100 20004KT P6SM SCT050
     FM210900 04004KT 4SM BR SCT250=



000
FTUS41 KCLE 201300 AAA
TAFMFD
TAF AMD
KMFD 201306Z 2013/2112 00000KT P6SM BKN022
     FM201800 VRB04KT P6SM BKN035
     FM202100 18004KT P6SM SCT050
     FM210900 00000KT 4SM BR SKC=



000
FTUS41 KCLE 201300 AAA
TAFTOL
TAF AMD
KTOL 201304Z 2013/2112 00000KT P6SM SCT030
      TEMPO 2013/2015 BKN030
     FM201500 18005KT P6SM BKN040
     FM202300 14004KT P6SM SCT250
     FM210600 VRB03KT 4SM BR SKC=



000
FTUS41 KCLE 201200 AAA
TAFERI
TAF AMD
KERI 201209Z 2012/2112 19008KT P6SM BKN010 OVC045
     FM201400 19008KT P6SM BKN025 OVC045
     FM201600 24006KT P6SM OVC045
     FM201900 32007KT P6SM SCT045
     FM210000 VRB03KT P6SM SKC=



    US Dept of Commerce
    National Oceanic and Atmospheric Administration
    National Weather Service
    1325 East West Highway
    Silver Spring, MD 20910
    Page Author: NWS Internet Services Team
Disclaimer
Information Quality
Credits
Glossary
Privacy Policy
Freedom of Information Act (FOIA)
About Us
Career Opportunities